Terminal Aerodrome Forecast
Issued by NWS

Home | Current Version | Previous Version | Text Only | Print | Product List | Glossary On
Versions: 1 2 3 4 5 6 7 8 9 10 11 12 13 14 15 16 17 18 19 20 21 22 23 24 25 26 27 28 29 30 31 32 33 34 35 36 37 38 39 40 41 42 43 44
000
FTUS43 KDMX 251457 AAA
TAFMCW
TAF AMD
KMCW 251457Z 2515/2612 05015G22KT 5SM BR OVC005
     FM251800 05015G23KT 6SM BR VCSH OVC007
     FM260000 05012KT P6SM VCSH OVC003
     FM260600 03008KT P6SM OVC003=

USA.gov is the U.S. government's official web portal to all federal, state and local government web resources and services.